CheckWX is a tool to help pilots better visualize weather data.  It is not intended as a substitute for an official pre-flight weather briefing.

17:00:06 UTC

KSTC TAF
St Cloud Regional Airport
St Cloud, Minnesota, USA
KSTC 171120Z 1712/1812 14003KT P6SM FEW150 TEMPO 1712/1714 1SM BR BKN002 FM171600 14006KT P6SM FEW250 FM180600 14011G18KT P6SM SCT250 WS020/18040KT

Oct-17@
12:00 UTC

Oct-17 @ 12:00 UTC

Oct-17@
16:00 UTC

Oct-17 @ 16:00 UTC

KSTC 171120Z 1712/1812 14003KT P6SM FEW150

Expired

Wind
  • 140° at 3 KTS
Cloud Levels
  • Few at 15,000' AGL

Oct-17@
12:00 UTC

Oct-17 @ 12:00 UTC

Oct-17@
14:00 UTC

Oct-17 @ 14:00 UTC

TEMPO 1712/1714 1SM BR BKN002

Expired

Conditions
Mist
Cloud Levels
  • Broken at 200' AGL

Oct-17@
16:00 UTC

Oct-17 @ 16:00 UTC

Oct-18@
06:00 UTC

Oct-18 @ 06:00 UTC

FM171600 14006KT P6SM FEW250

From

From Standard forecast or significant change

Wind
  • 140° at 6 KTS
Cloud Levels
  • Few at 25,000' AGL

Oct-18@
06:00 UTC

Oct-18 @ 06:00 UTC

Oct-18@
12:00 UTC

Oct-18 @ 12:00 UTC

FM180600 14011G18KT P6SM SCT250 WS020/18040KT

From

From Standard forecast or significant change

Wind
  • 140° at 11 KTS
  • {Gusting to 18 KTS
Cloud Levels
  • Scattered at 25,000' AGL